sensor_id;sensor_type;location;lat;lon;timestamp;P1;durP1;ratioP1;P2;durP2;ratioP2
84999;SDS011;75320;51.608;7.952;2024-03-08T00:01:20;23.90;;;18.00;;
84999;SDS011;75320;51.608;7.952;2024-03-08T00:03:48;23.20;;;17.83;;
84999;SDS011;75320;51.608;7.952;2024-03-08T00:06:13;22.73;;;17.02;;
84999;SDS011;75320;51.608;7.952;2024-03-08T00:08:39;24.15;;;16.27;;
84999;SDS011;75320;51.608;7.952;2024-03-08T00:11:04;24.63;;;17.27;;
84999;SDS011;75320;51.608;7.952;2024-03-08T00:13:31;24.30;;;19.77;;
84999;SDS011;75320;51.608;7.952;2024-03-08T00:15:56;26.73;;;18.83;;
84999;SDS011;75320;51.608;7.952;2024-03-08T00:18:22;23.00;;;16.55;;
84999;SDS011;75320;51.608;7.952;2024-03-08T00:20:48;24.60;;;19.42;;
84999;SDS011;75320;51.608;7.952;2024-03-08T00:23:13;25.27;;;17.93;;
84999;SDS011;75320;51.608;7.952;2024-03-08T00:25:41;27.63;;;18.70;;
84999;SDS011;75320;51.608;7.952;2024-03-08T00:28:06;21.40;;;16.57;;
84999;SDS011;75320;51.608;7.952;2024-03-08T00:30:34;25.27;;;18.75;;
84999;SDS011;75320;51.608;7.952;2024-03-08T00:32:59;24.40;;;18.42;;
84999;SDS011;75320;51.608;7.952;2024-03-08T00:35:25;22.27;;;18.10;;
84999;SDS011;75320;51.608;7.952;2024-03-08T00:37:57;24.33;;;18.05;;
84999;SDS011;75320;51.608;7.952;2024-03-08T00:40:22;22.73;;;14.47;;
84999;SDS011;75320;51.608;7.952;2024-03-08T00:42:48;25.15;;;16.58;;
84999;SDS011;75320;51.608;7.952;2024-03-08T00:45:13;27.30;;;19.97;;
84999;SDS011;75320;51.608;7.952;2024-03-08T00:47:39;24.63;;;19.45;;
84999;SDS011;75320;51.608;7.952;2024-03-08T00:50:07;26.95;;;17.27;;
84999;SDS011;75320;51.608;7.952;2024-03-08T00:52:33;23.60;;;16.95;;
84999;SDS011;75320;51.608;7.952;2024-03-08T00:55:00;23.50;;;18.92;;
84999;SDS011;75320;51.608;7.952;2024-03-08T00:57:26;24.08;;;15.05;;
84999;SDS011;75320;51.608;7.952;2024-03-08T00:59:52;25.08;;;17.55;;
84999;SDS011;75320;51.608;7.952;2024-03-08T01:02:19;20.30;;;14.77;;
84999;SDS011;75320;51.608;7.952;2024-03-08T01:04:46;23.95;;;18.45;;
84999;SDS011;75320;51.608;7.952;2024-03-08T01:07:12;26.17;;;19.30;;
84999;SDS011;75320;51.608;7.952;2024-03-08T01:09:39;23.98;;;17.17;;
84999;SDS011;75320;51.608;7.952;2024-03-08T01:12:04;24.33;;;15.45;;
84999;SDS011;75320;51.608;7.952;2024-03-08T01:14:32;21.63;;;17.92;;
84999;SDS011;75320;51.608;7.952;2024-03-08T01:16:58;27.90;;;20.40;;
84999;SDS011;75320;51.608;7.952;2024-03-08T01:19:24;24.98;;;17.63;;
84999;SDS011;75320;51.608;7.952;2024-03-08T01:21:49;20.83;;;14.07;;
84999;SDS011;75320;51.608;7.952;2024-03-08T01:24:15;24.85;;;17.88;;
84999;SDS011;75320;51.608;7.952;2024-03-08T01:26:41;26.10;;;21.33;;
84999;SDS011;75320;51.608;7.952;2024-03-08T01:29:06;25.92;;;15.57;;
84999;SDS011;75320;51.608;7.952;2024-03-08T01:31:33;22.73;;;15.52;;
84999;SDS011;75320;51.608;7.952;2024-03-08T01:33:58;25.80;;;19.70;;
84999;SDS011;75320;51.608;7.952;2024-03-08T01:36:24;24.73;;;18.10;;
84999;SDS011;75320;51.608;7.952;2024-03-08T01:38:51;24.63;;;17.20;;
84999;SDS011;75320;51.608;7.952;2024-03-08T01:41:17;22.05;;;16.27;;
84999;SDS011;75320;51.608;7.952;2024-03-08T01:43:43;24.33;;;14.80;;
84999;SDS011;75320;51.608;7.952;2024-03-08T01:46:10;24.90;;;18.05;;
84999;SDS011;75320;51.608;7.952;2024-03-08T01:48:41;24.80;;;19.27;;
84999;SDS011;75320;51.608;7.952;2024-03-08T01:51:07;22.58;;;16.52;;
84999;SDS011;75320;51.608;7.952;2024-03-08T01:53:33;23.73;;;15.57;;
84999;SDS011;75320;51.608;7.952;2024-03-08T01:55:59;22.05;;;17.95;;
84999;SDS011;75320;51.608;7.952;2024-03-08T01:58:28;25.85;;;15.60;;
84999;SDS011;75320;51.608;7.952;2024-03-08T02:00:56;26.25;;;16.85;;
84999;SDS011;75320;51.608;7.952;2024-03-08T02:03:22;24.50;;;19.73;;
84999;SDS011;75320;51.608;7.952;2024-03-08T02:05:47;25.75;;;19.70;;
84999;SDS011;75320;51.608;7.952;2024-03-08T02:08:13;23.52;;;18.65;;
84999;SDS011;75320;51.608;7.952;2024-03-08T02:10:39;28.30;;;20.23;;
84999;SDS011;75320;51.608;7.952;2024-03-08T02:13:06;23.27;;;16.40;;
84999;SDS011;75320;51.608;7.952;2024-03-08T02:18:20;22.45;;;19.02;;
84999;SDS011;75320;51.608;7.952;2024-03-08T02:20:51;20.55;;;13.85;;
84999;SDS011;75320;51.608;7.952;2024-03-08T02:23:17;24.23;;;17.25;;
84999;SDS011;75320;51.608;7.952;2024-03-08T02:25:43;26.00;;;19.05;;
84999;SDS011;75320;51.608;7.952;2024-03-08T02:28:09;28.83;;;17.73;;
84999;SDS011;75320;51.608;7.952;2024-03-08T02:30:37;23.67;;;19.10;;
84999;SDS011;75320;51.608;7.952;2024-03-08T02:33:02;22.60;;;15.33;;
84999;SDS011;75320;51.608;7.952;2024-03-08T02:35:27;24.70;;;15.60;;
84999;SDS011;75320;51.608;7.952;2024-03-08T02:37:53;24.60;;;14.93;;
84999;SDS011;75320;51.608;7.952;2024-03-08T02:40:18;23.10;;;15.13;;
84999;SDS011;75320;51.608;7.952;2024-03-08T02:42:44;25.00;;;14.60;;
84999;SDS011;75320;51.608;7.952;2024-03-08T02:45:09;26.07;;;19.07;;
84999;SDS011;75320;51.608;7.952;2024-03-08T02:47:36;26.88;;;21.15;;
84999;SDS011;75320;51.608;7.952;2024-03-08T02:50:01;27.13;;;15.93;;
84999;SDS011;75320;51.608;7.952;2024-03-08T02:52:28;22.05;;;16.73;;
84999;SDS011;75320;51.608;7.952;2024-03-08T02:54:53;25.98;;;19.08;;
84999;SDS011;75320;51.608;7.952;2024-03-08T02:57:19;24.17;;;17.40;;
84999;SDS011;75320;51.608;7.952;2024-03-08T02:59:44;24.67;;;18.00;;
84999;SDS011;75320;51.608;7.952;2024-03-08T03:02:10;26.58;;;18.00;;
84999;SDS011;75320;51.608;7.952;2024-03-08T03:04:36;24.33;;;15.27;;
84999;SDS011;75320;51.608;7.952;2024-03-08T03:07:04;27.13;;;18.08;;
84999;SDS011;75320;51.608;7.952;2024-03-08T03:09:30;24.70;;;17.08;;
84999;SDS011;75320;51.608;7.952;2024-03-08T03:11:57;25.52;;;16.77;;
84999;SDS011;75320;51.608;7.952;2024-03-08T03:14:23;22.65;;;15.13;;
84999;SDS011;75320;51.608;7.952;2024-03-08T03:16:48;26.52;;;19.95;;
84999;SDS011;75320;51.608;7.952;2024-03-08T03:19:15;24.13;;;16.05;;
84999;SDS011;75320;51.608;7.952;2024-03-08T03:21:40;22.02;;;14.55;;
84999;SDS011;75320;51.608;7.952;2024-03-08T03:24:08;26.35;;;20.02;;
84999;SDS011;75320;51.608;7.952;2024-03-08T03:26:35;23.67;;;18.13;;
84999;SDS011;75320;51.608;7.952;2024-03-08T03:29:07;24.00;;;15.27;;
84999;SDS011;75320;51.608;7.952;2024-03-08T03:31:33;22.27;;;15.73;;
84999;SDS011;75320;51.608;7.952;2024-03-08T03:34:00;25.90;;;15.57;;
84999;SDS011;75320;51.608;7.952;2024-03-08T03:36:29;23.67;;;15.05;;
84999;SDS011;75320;51.608;7.952;2024-03-08T03:38:55;26.35;;;19.17;;
84999;SDS011;75320;51.608;7.952;2024-03-08T03:41:30;27.52;;;19.75;;
84999;SDS011;75320;51.608;7.952;2024-03-08T03:43:56;25.52;;;18.60;;
84999;SDS011;75320;51.608;7.952;2024-03-08T03:46:21;24.47;;;14.17;;
84999;SDS011;75320;51.608;7.952;2024-03-08T03:48:46;28.60;;;19.55;;
84999;SDS011;75320;51.608;7.952;2024-03-08T03:51:12;24.60;;;16.33;;
84999;SDS011;75320;51.608;7.952;2024-03-08T03:53:37;25.38;;;18.77;;
84999;SDS011;75320;51.608;7.952;2024-03-08T03:56:03;23.45;;;17.45;;
84999;SDS011;75320;51.608;7.952;2024-03-08T03:58:33;22.55;;;15.18;;
84999;SDS011;75320;51.608;7.952;2024-03-08T04:00:58;25.55;;;16.30;;
84999;SDS011;75320;51.608;7.952;2024-03-08T04:03:23;23.00;;;16.07;;
84999;SDS011;75320;51.608;7.952;2024-03-08T04:05:48;26.98;;;19.73;;
84999;SDS011;75320;51.608;7.952;2024-03-08T04:08:14;22.97;;;16.37;;
84999;SDS011;75320;51.608;7.952;2024-03-08T04:10:39;26.67;;;18.58;;
84999;SDS011;75320;51.608;7.952;2024-03-08T04:13:07;26.75;;;19.73;;
84999;SDS011;75320;51.608;7.952;2024-03-08T04:15:35;23.10;;;18.17;;
84999;SDS011;75320;51.608;7.952;2024-03-08T04:18:01;27.60;;;21.05;;
84999;SDS011;75320;51.608;7.952;2024-03-08T04:20:27;23.85;;;16.70;;
84999;SDS011;75320;51.608;7.952;2024-03-08T04:22:52;29.00;;;21.42;;
84999;SDS011;75320;51.608;7.952;2024-03-08T04:25:18;28.00;;;20.00;;
84999;SDS011;75320;51.608;7.952;2024-03-08T04:27:43;26.50;;;17.30;;
84999;SDS011;75320;51.608;7.952;2024-03-08T04:30:09;24.80;;;15.20;;
84999;SDS011;75320;51.608;7.952;2024-03-08T04:32:35;29.08;;;16.90;;
84999;SDS011;75320;51.608;7.952;2024-03-08T04:35:00;25.27;;;17.08;;
84999;SDS011;75320;51.608;7.952;2024-03-08T04:37:26;26.95;;;19.60;;
84999;SDS011;75320;51.608;7.952;2024-03-08T04:42:19;25.93;;;17.70;;
84999;SDS011;75320;51.608;7.952;2024-03-08T04:44:45;24.73;;;18.60;;
84999;SDS011;75320;51.608;7.952;2024-03-08T04:47:10;23.57;;;16.40;;
84999;SDS011;75320;51.608;7.952;2024-03-08T04:49:36;28.92;;;17.50;;
84999;SDS011;75320;51.608;7.952;2024-03-08T04:52:01;24.67;;;16.17;;
84999;SDS011;75320;51.608;7.952;2024-03-08T04:54:28;27.30;;;20.98;;
84999;SDS011;75320;51.608;7.952;2024-03-08T04:56:54;30.20;;;18.42;;
84999;SDS011;75320;51.608;7.952;2024-03-08T04:59:19;30.33;;;22.10;;
84999;SDS011;75320;51.608;7.952;2024-03-08T05:01:45;25.20;;;15.57;;
84999;SDS011;75320;51.608;7.952;2024-03-08T05:04:10;27.27;;;16.10;;
84999;SDS011;75320;51.608;7.952;2024-03-08T05:06:35;26.70;;;18.25;;
84999;SDS011;75320;51.608;7.952;2024-03-08T05:09:01;31.13;;;19.75;;
84999;SDS011;75320;51.608;7.952;2024-03-08T05:11:41;28.02;;;17.10;;
84999;SDS011;75320;51.608;7.952;2024-03-08T05:14:08;25.02;;;16.65;;
84999;SDS011;75320;51.608;7.952;2024-03-08T05:16:34;27.30;;;17.00;;
84999;SDS011;75320;51.608;7.952;2024-03-08T05:19:00;27.08;;;17.98;;
84999;SDS011;75320;51.608;7.952;2024-03-08T05:21:25;28.87;;;18.60;;
84999;SDS011;75320;51.608;7.952;2024-03-08T05:23:53;26.98;;;17.50;;
84999;SDS011;75320;51.608;7.952;2024-03-08T05:26:19;25.42;;;16.40;;
84999;SDS011;75320;51.608;7.952;2024-03-08T05:28:44;30.13;;;19.90;;
84999;SDS011;75320;51.608;7.952;2024-03-08T05:31:09;30.63;;;22.63;;
84999;SDS011;75320;51.608;7.952;2024-03-08T05:33:35;28.10;;;20.23;;
84999;SDS011;75320;51.608;7.952;2024-03-08T05:36:01;25.60;;;16.38;;
84999;SDS011;75320;51.608;7.952;2024-03-08T05:38:27;30.27;;;16.95;;
84999;SDS011;75320;51.608;7.952;2024-03-08T05:40:53;27.27;;;17.05;;
84999;SDS011;75320;51.608;7.952;2024-03-08T05:43:20;30.08;;;17.88;;
84999;SDS011;75320;51.608;7.952;2024-03-08T05:45:46;29.70;;;21.45;;
84999;SDS011;75320;51.608;7.952;2024-03-08T05:48:11;30.20;;;19.00;;
84999;SDS011;75320;51.608;7.952;2024-03-08T05:50:38;35.05;;;20.40;;
84999;SDS011;75320;51.608;7.952;2024-03-08T05:53:03;30.42;;;19.88;;
84999;SDS011;75320;51.608;7.952;2024-03-08T05:55:32;29.55;;;19.45;;
84999;SDS011;75320;51.608;7.952;2024-03-08T05:58:01;28.73;;;18.33;;
84999;SDS011;75320;51.608;7.952;2024-03-08T06:00:27;28.33;;;21.25;;
84999;SDS011;75320;51.608;7.952;2024-03-08T06:02:56;30.02;;;17.27;;
84999;SDS011;75320;51.608;7.952;2024-03-08T06:05:21;32.65;;;23.10;;
84999;SDS011;75320;51.608;7.952;2024-03-08T06:07:49;30.75;;;20.60;;
84999;SDS011;75320;51.608;7.952;2024-03-08T06:10:15;31.42;;;22.00;;
84999;SDS011;75320;51.608;7.952;2024-03-08T06:12:42;31.65;;;21.95;;
84999;SDS011;75320;51.608;7.952;2024-03-08T06:15:08;29.03;;;22.00;;
84999;SDS011;75320;51.608;7.952;2024-03-08T06:17:35;27.63;;;18.27;;
84999;SDS011;75320;51.608;7.952;2024-03-08T06:20:01;26.00;;;17.75;;
84999;SDS011;75320;51.608;7.952;2024-03-08T06:22:26;26.85;;;16.80;;
84999;SDS011;75320;51.608;7.952;2024-03-08T06:24:53;27.80;;;17.30;;
84999;SDS011;75320;51.608;7.952;2024-03-08T06:27:19;30.50;;;20.02;;
84999;SDS011;75320;51.608;7.952;2024-03-08T06:29:44;31.33;;;20.33;;
84999;SDS011;75320;51.608;7.952;2024-03-08T06:32:10;26.20;;;19.43;;
84999;SDS011;75320;51.608;7.952;2024-03-08T06:34:35;26.67;;;22.08;;
84999;SDS011;75320;51.608;7.952;2024-03-08T06:37:01;31.93;;;21.33;;
84999;SDS011;75320;51.608;7.952;2024-03-08T06:39:27;24.52;;;17.55;;
84999;SDS011;75320;51.608;7.952;2024-03-08T06:41:56;22.95;;;18.17;;
84999;SDS011;75320;51.608;7.952;2024-03-08T06:44:22;25.90;;;19.77;;
84999;SDS011;75320;51.608;7.952;2024-03-08T06:46:47;26.17;;;19.10;;
84999;SDS011;75320;51.608;7.952;2024-03-08T06:49:13;26.08;;;19.38;;
84999;SDS011;75320;51.608;7.952;2024-03-08T06:51:43;25.60;;;20.95;;
84999;SDS011;75320;51.608;7.952;2024-03-08T06:54:08;24.80;;;16.48;;
84999;SDS011;75320;51.608;7.952;2024-03-08T06:56:36;26.05;;;17.67;;
84999;SDS011;75320;51.608;7.952;2024-03-08T06:59:02;24.17;;;15.93;;
84999;SDS011;75320;51.608;7.952;2024-03-08T07:01:28;27.08;;;19.85;;
84999;SDS011;75320;51.608;7.952;2024-03-08T07:03:56;24.65;;;16.25;;
84999;SDS011;75320;51.608;7.952;2024-03-08T07:06:22;23.95;;;16.33;;
84999;SDS011;75320;51.608;7.952;2024-03-08T07:08:47;25.48;;;15.98;;
84999;SDS011;75320;51.608;7.952;2024-03-08T07:11:14;25.48;;;17.55;;
84999;SDS011;75320;51.608;7.952;2024-03-08T07:13:43;24.55;;;15.93;;
84999;SDS011;75320;51.608;7.952;2024-03-08T07:16:11;23.95;;;15.07;;
84999;SDS011;75320;51.608;7.952;2024-03-08T07:18:37;25.67;;;18.10;;
84999;SDS011;75320;51.608;7.952;2024-03-08T07:21:05;24.80;;;19.73;;
84999;SDS011;75320;51.608;7.952;2024-03-08T07:23:30;24.08;;;19.17;;
84999;SDS011;75320;51.608;7.952;2024-03-08T07:26:14;26.55;;;17.73;;
84999;SDS011;75320;51.608;7.952;2024-03-08T07:28:40;26.75;;;18.13;;
84999;SDS011;75320;51.608;7.952;2024-03-08T07:31:06;25.88;;;17.50;;
84999;SDS011;75320;51.608;7.952;2024-03-08T07:33:37;25.58;;;18.58;;
84999;SDS011;75320;51.608;7.952;2024-03-08T07:36:03;24.27;;;18.38;;
84999;SDS011;75320;51.608;7.952;2024-03-08T07:38:28;25.88;;;16.67;;
84999;SDS011;75320;51.608;7.952;2024-03-08T07:40:54;24.00;;;16.77;;
84999;SDS011;75320;51.608;7.952;2024-03-08T07:45:48;25.58;;;15.98;;
84999;SDS011;75320;51.608;7.952;2024-03-08T07:48:18;26.20;;;17.55;;
84999;SDS011;75320;51.608;7.952;2024-03-08T07:50:43;27.85;;;18.20;;
84999;SDS011;75320;51.608;7.952;2024-03-08T07:53:09;27.17;;;19.88;;
84999;SDS011;75320;51.608;7.952;2024-03-08T07:55:34;29.45;;;17.13;;
84999;SDS011;75320;51.608;7.952;2024-03-08T07:58:03;29.17;;;16.80;;
84999;SDS011;75320;51.608;7.952;2024-03-08T08:00:29;29.00;;;20.83;;
84999;SDS011;75320;51.608;7.952;2024-03-08T08:02:56;26.67;;;19.35;;
84999;SDS011;75320;51.608;7.952;2024-03-08T08:05:22;29.90;;;18.85;;
84999;SDS011;75320;51.608;7.952;2024-03-08T08:07:47;24.52;;;18.00;;
84999;SDS011;75320;51.608;7.952;2024-03-08T08:10:12;29.07;;;19.40;;
84999;SDS011;75320;51.608;7.952;2024-03-08T08:12:48;27.55;;;17.50;;
84999;SDS011;75320;51.608;7.952;2024-03-08T08:15:14;26.17;;;18.83;;
84999;SDS011;75320;51.608;7.952;2024-03-08T08:17:43;28.58;;;21.02;;
84999;SDS011;75320;51.608;7.952;2024-03-08T08:20:10;26.63;;;17.55;;
84999;SDS011;75320;51.608;7.952;2024-03-08T08:25:09;27.42;;;18.02;;
84999;SDS011;75320;51.608;7.952;2024-03-08T08:27:38;25.27;;;16.00;;
84999;SDS011;75320;51.608;7.952;2024-03-08T08:30:05;22.70;;;16.95;;
84999;SDS011;75320;51.608;7.952;2024-03-08T08:32:33;31.95;;;21.58;;
84999;SDS011;75320;51.608;7.952;2024-03-08T08:35:00;25.77;;;18.83;;
84999;SDS011;75320;51.608;7.952;2024-03-08T08:37:25;26.35;;;17.63;;
84999;SDS011;75320;51.608;7.952;2024-03-08T08:39:50;25.57;;;18.97;;
84999;SDS011;75320;51.608;7.952;2024-03-08T08:42:16;26.60;;;18.95;;
84999;SDS011;75320;51.608;7.952;2024-03-08T08:44:42;26.88;;;16.92;;
84999;SDS011;75320;51.608;7.952;2024-03-08T08:47:08;23.10;;;14.75;;
84999;SDS011;75320;51.608;7.952;2024-03-08T08:49:33;26.75;;;19.50;;
84999;SDS011;75320;51.608;7.952;2024-03-08T08:51:58;23.35;;;16.05;;
84999;SDS011;75320;51.608;7.952;2024-03-08T08:54:24;25.90;;;15.77;;
84999;SDS011;75320;51.608;7.952;2024-03-08T08:56:50;22.98;;;16.60;;
84999;SDS011;75320;51.608;7.952;2024-03-08T08:59:15;25.50;;;20.15;;
84999;SDS011;75320;51.608;7.952;2024-03-08T09:01:44;26.85;;;21.52;;
84999;SDS011;75320;51.608;7.952;2024-03-08T09:06:37;25.83;;;15.57;;
84999;SDS011;75320;51.608;7.952;2024-03-08T09:09:02;21.63;;;17.37;;
84999;SDS011;75320;51.608;7.952;2024-03-08T09:11:29;26.42;;;19.08;;
84999;SDS011;75320;51.608;7.952;2024-03-08T09:13:55;24.35;;;18.55;;
84999;SDS011;75320;51.608;7.952;2024-03-08T09:16:20;24.50;;;17.70;;
84999;SDS011;75320;51.608;7.952;2024-03-08T09:18:46;25.58;;;18.52;;
84999;SDS011;75320;51.608;7.952;2024-03-08T09:21:12;24.52;;;18.30;;
84999;SDS011;75320;51.608;7.952;2024-03-08T09:23:38;22.30;;;15.18;;
84999;SDS011;75320;51.608;7.952;2024-03-08T09:26:03;23.70;;;15.52;;
84999;SDS011;75320;51.608;7.952;2024-03-08T09:28:29;23.80;;;15.05;;
84999;SDS011;75320;51.608;7.952;2024-03-08T09:30:54;25.77;;;17.35;;
84999;SDS011;75320;51.608;7.952;2024-03-08T09:33:20;22.70;;;17.63;;
84999;SDS011;75320;51.608;7.952;2024-03-08T09:35:46;25.25;;;20.13;;
84999;SDS011;75320;51.608;7.952;2024-03-08T09:38:12;23.27;;;15.38;;
84999;SDS011;75320;51.608;7.952;2024-03-08T09:40:38;23.98;;;17.15;;
84999;SDS011;75320;51.608;7.952;2024-03-08T09:43:06;23.27;;;16.58;;
84999;SDS011;75320;51.608;7.952;2024-03-08T09:45:31;23.13;;;17.42;;
84999;SDS011;75320;51.608;7.952;2024-03-08T09:48:01;27.92;;;18.70;;
84999;SDS011;75320;51.608;7.952;2024-03-08T09:50:27;24.17;;;17.85;;
84999;SDS011;75320;51.608;7.952;2024-03-08T09:52:54;24.77;;;18.73;;
84999;SDS011;75320;51.608;7.952;2024-03-08T09:55:22;24.00;;;17.38;;
84999;SDS011;75320;51.608;7.952;2024-03-08T09:57:47;23.35;;;16.33;;
84999;SDS011;75320;51.608;7.952;2024-03-08T10:00:32;19.02;;;13.80;;
84999;SDS011;75320;51.608;7.952;2024-03-08T10:03:00;22.58;;;17.58;;
84999;SDS011;75320;51.608;7.952;2024-03-08T10:05:27;20.95;;;15.25;;
84999;SDS011;75320;51.608;7.952;2024-03-08T10:07:52;20.27;;;12.83;;
84999;SDS011;75320;51.608;7.952;2024-03-08T10:10:18;21.23;;;14.45;;
84999;SDS011;75320;51.608;7.952;2024-03-08T10:12:43;18.48;;;12.52;;
84999;SDS011;75320;51.608;7.952;2024-03-08T10:15:10;18.90;;;13.25;;
84999;SDS011;75320;51.608;7.952;2024-03-08T10:17:37;18.75;;;14.13;;
84999;SDS011;75320;51.608;7.952;2024-03-08T10:20:09;20.35;;;16.63;;
84999;SDS011;75320;51.608;7.952;2024-03-08T10:22:40;21.63;;;17.27;;
84999;SDS011;75320;51.608;7.952;2024-03-08T10:25:09;19.17;;;12.95;;
84999;SDS011;75320;51.608;7.952;2024-03-08T10:27:36;19.92;;;13.38;;
84999;SDS011;75320;51.608;7.952;2024-03-08T10:30:02;16.60;;;12.32;;
84999;SDS011;75320;51.608;7.952;2024-03-08T10:34:54;16.83;;;13.00;;
84999;SDS011;75320;51.608;7.952;2024-03-08T10:37:21;18.05;;;14.73;;
84999;SDS011;75320;51.608;7.952;2024-03-08T10:39:51;19.08;;;13.57;;
84999;SDS011;75320;51.608;7.952;2024-03-08T10:42:41;17.65;;;12.60;;
84999;SDS011;75320;51.608;7.952;2024-03-08T10:50:53;15.15;;;10.77;;
84999;SDS011;75320;51.608;7.952;2024-03-08T10:53:19;15.27;;;10.25;;
84999;SDS011;75320;51.608;7.952;2024-03-08T10:55:48;16.02;;;11.73;;
84999;SDS011;75320;51.608;7.952;2024-03-08T10:58:14;17.05;;;12.07;;
84999;SDS011;75320;51.608;7.952;2024-03-08T11:00:41;15.98;;;13.85;;
84999;SDS011;75320;51.608;7.952;2024-03-08T11:03:07;15.38;;;12.57;;
84999;SDS011;75320;51.608;7.952;2024-03-08T11:05:39;18.65;;;11.70;;
84999;SDS011;75320;51.608;7.952;2024-03-08T11:08:18;16.00;;;9.88;;
84999;SDS011;75320;51.608;7.952;2024-03-08T11:10:47;15.20;;;11.85;;
84999;SDS011;75320;51.608;7.952;2024-03-08T11:13:40;13.85;;;10.30;;
84999;SDS011;75320;51.608;7.952;2024-03-08T11:16:11;13.75;;;11.40;;
84999;SDS011;75320;51.608;7.952;2024-03-08T11:19:01;15.70;;;11.95;;
84999;SDS011;75320;51.608;7.952;2024-03-08T11:21:48;14.70;;;11.00;;
84999;SDS011;75320;51.608;7.952;2024-03-08T11:24:22;16.63;;;12.85;;
84999;SDS011;75320;51.608;7.952;2024-03-08T11:26:48;13.40;;;8.95;;
84999;SDS011;75320;51.608;7.952;2024-03-08T11:32:16;12.75;;;9.18;;
84999;SDS011;75320;51.608;7.952;2024-03-08T11:34:47;15.57;;;12.55;;
84999;SDS011;75320;51.608;7.952;2024-03-08T11:37:15;14.85;;;9.35;;
84999;SDS011;75320;51.608;7.952;2024-03-08T11:39:46;13.57;;;9.82;;
84999;SDS011;75320;51.608;7.952;2024-03-08T11:42:16;16.02;;;11.52;;
84999;SDS011;75320;51.608;7.952;2024-03-08T11:44:43;14.43;;;12.65;;
84999;SDS011;75320;51.608;7.952;2024-03-08T11:47:10;17.85;;;13.45;;
84999;SDS011;75320;51.608;7.952;2024-03-08T11:49:36;14.55;;;11.82;;
84999;SDS011;75320;51.608;7.952;2024-03-08T11:52:02;16.05;;;13.63;;
84999;SDS011;75320;51.608;7.952;2024-03-08T11:54:28;15.70;;;13.68;;
84999;SDS011;75320;51.608;7.952;2024-03-08T11:56:55;17.00;;;12.98;;
84999;SDS011;75320;51.608;7.952;2024-03-08T11:59:25;16.33;;;11.00;;
84999;SDS011;75320;51.608;7.952;2024-03-08T12:04:28;16.42;;;10.98;;
84999;SDS011;75320;51.608;7.952;2024-03-08T12:06:54;14.18;;;12.43;;
84999;SDS011;75320;51.608;7.952;2024-03-08T12:09:19;15.80;;;12.93;;
84999;SDS011;75320;51.608;7.952;2024-03-08T12:11:47;14.82;;;11.38;;
84999;SDS011;75320;51.608;7.952;2024-03-08T12:14:14;16.48;;;12.63;;
84999;SDS011;75320;51.608;7.952;2024-03-08T12:16:39;18.10;;;13.07;;
84999;SDS011;75320;51.608;7.952;2024-03-08T12:21:35;14.77;;;10.60;;
84999;SDS011;75320;51.608;7.952;2024-03-08T12:24:04;15.30;;;10.40;;
84999;SDS011;75320;51.608;7.952;2024-03-08T12:26:35;16.92;;;12.73;;
84999;SDS011;75320;51.608;7.952;2024-03-08T12:31:47;18.98;;;14.40;;
84999;SDS011;75320;51.608;7.952;2024-03-08T12:34:13;16.30;;;13.23;;
84999;SDS011;75320;51.608;7.952;2024-03-08T12:36:49;15.95;;;12.13;;
84999;SDS011;75320;51.608;7.952;2024-03-08T12:39:17;16.95;;;13.00;;
84999;SDS011;75320;51.608;7.952;2024-03-08T12:41:48;19.08;;;13.13;;
84999;SDS011;75320;51.608;7.952;2024-03-08T12:44:16;16.77;;;13.45;;
84999;SDS011;75320;51.608;7.952;2024-03-08T12:46:43;17.75;;;11.27;;
84999;SDS011;75320;51.608;7.952;2024-03-08T12:54:02;16.42;;;12.80;;
84999;SDS011;75320;51.608;7.952;2024-03-08T12:56:31;18.60;;;13.35;;
84999;SDS011;75320;51.608;7.952;2024-03-08T12:58:59;20.00;;;14.40;;
84999;SDS011;75320;51.608;7.952;2024-03-08T13:01:25;22.25;;;15.90;;
84999;SDS011;75320;51.608;7.952;2024-03-08T13:03:51;20.15;;;14.70;;
84999;SDS011;75320;51.608;7.952;2024-03-08T13:06:17;19.23;;;14.52;;
84999;SDS011;75320;51.608;7.952;2024-03-08T13:08:44;20.85;;;13.25;;
84999;SDS011;75320;51.608;7.952;2024-03-08T13:11:10;19.73;;;13.10;;
84999;SDS011;75320;51.608;7.952;2024-03-08T13:13:37;17.20;;;12.43;;
84999;SDS011;75320;51.608;7.952;2024-03-08T13:16:04;19.55;;;13.35;;
84999;SDS011;75320;51.608;7.952;2024-03-08T13:18:33;19.13;;;14.82;;
84999;SDS011;75320;51.608;7.952;2024-03-08T13:21:00;19.80;;;14.85;;
84999;SDS011;75320;51.608;7.952;2024-03-08T13:23:32;17.58;;;13.75;;
84999;SDS011;75320;51.608;7.952;2024-03-08T13:26:11;19.98;;;15.23;;
84999;SDS011;75320;51.608;7.952;2024-03-08T13:28:41;18.75;;;12.82;;
84999;SDS011;75320;51.608;7.952;2024-03-08T13:31:21;18.48;;;11.93;;
84999;SDS011;75320;51.608;7.952;2024-03-08T13:33:47;18.50;;;13.43;;
84999;SDS011;75320;51.608;7.952;2024-03-08T13:36:13;23.15;;;14.95;;
84999;SDS011;75320;51.608;7.952;2024-03-08T13:38:45;18.35;;;13.73;;
84999;SDS011;75320;51.608;7.952;2024-03-08T13:41:12;18.38;;;12.15;;
84999;SDS011;75320;51.608;7.952;2024-03-08T13:43:48;15.90;;;11.40;;
84999;SDS011;75320;51.608;7.952;2024-03-08T13:46:18;17.55;;;12.80;;
84999;SDS011;75320;51.608;7.952;2024-03-08T13:48:44;18.63;;;15.68;;
84999;SDS011;75320;51.608;7.952;2024-03-08T13:51:10;18.23;;;15.05;;
84999;SDS011;75320;51.608;7.952;2024-03-08T13:53:39;20.02;;;15.68;;
84999;SDS011;75320;51.608;7.952;2024-03-08T13:56:05;17.73;;;11.45;;
84999;SDS011;75320;51.608;7.952;2024-03-08T13:58:30;17.45;;;12.60;;
84999;SDS011;75320;51.608;7.952;2024-03-08T14:00:56;18.77;;;14.50;;
84999;SDS011;75320;51.608;7.952;2024-03-08T14:03:22;20.70;;;14.52;;
84999;SDS011;75320;51.608;7.952;2024-03-08T14:05:49;19.98;;;16.95;;
84999;SDS011;75320;51.608;7.952;2024-03-08T14:08:17;18.13;;;13.05;;
84999;SDS011;75320;51.608;7.952;2024-03-08T14:10:42;15.07;;;10.75;;
84999;SDS011;75320;51.608;7.952;2024-03-08T14:13:11;18.00;;;11.57;;
84999;SDS011;75320;51.608;7.952;2024-03-08T14:15:37;17.70;;;11.38;;
84999;SDS011;75320;51.608;7.952;2024-03-08T14:18:06;18.90;;;16.02;;
84999;SDS011;75320;51.608;7.952;2024-03-08T14:20:32;17.77;;;11.55;;
84999;SDS011;75320;51.608;7.952;2024-03-08T14:22:59;18.73;;;14.52;;
84999;SDS011;75320;51.608;7.952;2024-03-08T14:25:24;17.50;;;11.43;;
84999;SDS011;75320;51.608;7.952;2024-03-08T14:27:50;18.98;;;11.93;;
84999;SDS011;75320;51.608;7.952;2024-03-08T14:30:23;17.30;;;13.52;;
84999;SDS011;75320;51.608;7.952;2024-03-08T14:32:58;19.88;;;14.45;;
84999;SDS011;75320;51.608;7.952;2024-03-08T14:35:24;19.77;;;12.15;;
84999;SDS011;75320;51.608;7.952;2024-03-08T14:37:50;17.45;;;11.45;;
84999;SDS011;75320;51.608;7.952;2024-03-08T14:40:17;17.40;;;11.68;;
84999;SDS011;75320;51.608;7.952;2024-03-08T14:42:47;20.83;;;14.85;;
84999;SDS011;75320;51.608;7.952;2024-03-08T14:45:14;19.73;;;14.60;;
84999;SDS011;75320;51.608;7.952;2024-03-08T14:47:40;18.95;;;15.73;;
84999;SDS011;75320;51.608;7.952;2024-03-08T14:50:06;19.45;;;13.48;;
84999;SDS011;75320;51.608;7.952;2024-03-08T14:52:32;20.70;;;11.80;;
84999;SDS011;75320;51.608;7.952;2024-03-08T14:55:05;19.42;;;14.48;;
84999;SDS011;75320;51.608;7.952;2024-03-08T14:57:31;19.02;;;13.68;;